createdAt,value
2023-04-19T00:00:37.009Z,146904.28
2023-04-19T00:01:39.704Z,146900.69
2023-04-19T00:02:42.915Z,146882.53
2023-04-19T00:03:45.645Z,146865.66
2023-04-19T00:04:48.070Z,146851.19
2023-04-19T00:05:50.559Z,146857.22
2023-04-19T00:06:52.884Z,146853.59
2023-04-19T00:07:55.370Z,146829.44
2023-04-19T00:08:57.720Z,146819.78
2023-04-19T00:09:59.898Z,146819.78
2023-04-19T00:11:02.181Z,146824.63
2023-04-19T00:12:04.434Z,146819.78
2023-04-19T00:13:06.897Z,146816.13
2023-04-19T00:14:09.106Z,146805.28
2023-04-19T00:15:11.497Z,146810.09
2023-04-19T00:16:13.672Z,146798.03
2023-04-19T00:17:15.943Z,146781.13
2023-04-19T00:18:18.073Z,146784.72
2023-04-19T00:19:21.682Z,146770.28
2023-04-19T00:20:23.959Z,146786.00
2023-04-19T00:21:26.605Z,146786.00
2023-04-19T00:22:28.736Z,146794.44
2023-04-19T00:23:30.902Z,146807.69
2023-04-19T00:24:33.051Z,146807.69
2023-04-19T00:25:35.266Z,146806.47
2023-04-19T00:26:37.430Z,146798.03
2023-04-19T00:27:40.059Z,146781.13
2023-04-19T00:28:42.523Z,146789.59
2023-04-19T00:29:44.840Z,146776.28
2023-04-19T00:30:47.092Z,146786.00
2023-04-19T00:31:49.354Z,146790.81
2023-04-19T00:32:51.839Z,146786.00
2023-04-19T00:33:54.048Z,146776.28
2023-04-19T00:34:56.241Z,146776.28
2023-04-19T00:35:58.433Z,146769.06
2023-04-19T00:37:00.898Z,146770.28
2023-04-19T00:38:03.023Z,146760.63
2023-04-19T00:39:05.244Z,146750.94
2023-04-19T00:40:08.141Z,146765.44
2023-04-19T00:41:12.308Z,146748.53
2023-04-19T00:42:14.595Z,146732.84
2023-04-19T00:43:20.021Z,146775.09
2023-04-19T00:44:22.169Z,146747.31
2023-04-19T00:45:25.755Z,146759.41
2023-04-19T00:46:28.062Z,146735.25
2023-04-19T00:47:30.812Z,146715.94
2023-04-19T00:48:36.306Z,146754.59
2023-04-19T00:49:38.550Z,146720.81
2023-04-19T00:50:43.468Z,146729.22
2023-04-19T00:51:46.632Z,146715.94
2023-04-19T00:52:49.035Z,146705.09
2023-04-19T00:53:52.116Z,146703.88
2023-04-19T00:54:55.745Z,146725.63
2023-04-19T00:56:02.088Z,146731.66
2023-04-19T00:57:04.464Z,146696.66
2023-04-19T00:58:08.502Z,146717.13
2023-04-19T00:59:11.970Z,146694.25
2023-04-19T01:00:15.020Z,146682.13
2023-04-19T01:01:18.477Z,146676.09
2023-04-19T01:02:22.235Z,146679.72
2023-04-19T01:03:27.666Z,146682.13
2023-04-19T01:04:30.323Z,146674.91
2023-04-19T01:05:32.534Z,146677.31
2023-04-19T01:06:36.011Z,146673.69
2023-04-19T01:07:38.313Z,146653.16
2023-04-19T01:08:40.969Z,146650.75
2023-04-19T01:09:43.999Z,146679.72
2023-04-19T01:10:46.133Z,146654.38
2023-04-19T01:11:48.363Z,146643.53
2023-04-19T01:12:50.542Z,146633.88
2023-04-19T01:13:52.932Z,146636.28
2023-04-19T01:14:55.086Z,146648.34
2023-04-19T01:15:57.994Z,146654.38
2023-04-19T01:17:00.379Z,146619.38
2023-04-19T01:18:02.647Z,146603.72
2023-04-19T01:19:04.821Z,146592.88
2023-04-19T01:20:08.145Z,146588.00
2023-04-19T01:21:10.484Z,146580.78
2023-04-19T01:22:19.512Z,146610.94
2023-04-19T01:23:21.686Z,146588.00
2023-04-19T01:24:24.686Z,146595.28
2023-04-19T01:25:26.893Z,146586.81
2023-04-19T01:26:29.064Z,146577.16
2023-04-19T01:27:31.242Z,146583.19
2023-04-19T01:28:33.452Z,146579.56
2023-04-19T01:29:35.714Z,146586.81
2023-04-19T01:30:38.125Z,146592.88
2023-04-19T01:31:40.572Z,146592.88
2023-04-19T01:32:42.824Z,146584.41
2023-04-19T01:33:45.129Z,146585.59
2023-04-19T01:34:49.212Z,146604.91
2023-04-19T01:35:51.378Z,146575.97
2023-04-19T01:36:53.501Z,146571.13
2023-04-19T01:37:56.420Z,146573.53
2023-04-19T01:38:58.755Z,146559.09
2023-04-19T01:40:01.167Z,146549.41
2023-04-19T01:41:03.647Z,146547.00
2023-04-19T01:42:06.905Z,146547.00
2023-04-19T01:43:14.914Z,146584.41
2023-04-19T01:44:17.253Z,146553.03
2023-04-19T01:45:20.103Z,146545.78
2023-04-19T01:46:26.060Z,146525.28
2023-04-19T01:47:28.614Z,146513.16
2023-04-19T01:48:31.051Z,146534.94
2023-04-19T01:49:33.280Z,146530.13
2023-04-19T01:50:35.560Z,146525.28
2023-04-19T01:51:39.993Z,146534.94
2023-04-19T01:52:42.144Z,146511.97
2023-04-19T01:53:44.357Z,146505.94
2023-04-19T01:54:46.519Z,146496.31
2023-04-19T01:55:50.744Z,146481.81
2023-04-19T01:56:52.929Z,146477.00
2023-04-19T01:57:55.943Z,146472.19
2023-04-19T01:58:58.948Z,146473.38
2023-04-19T02:00:02.370Z,146489.03
2023-04-19T02:01:04.699Z,146481.81
2023-04-19T02:02:08.460Z,146472.19
2023-04-19T02:03:10.822Z,146484.22
2023-04-19T02:04:13.203Z,146484.22
2023-04-19T02:05:15.848Z,146481.81
2023-04-19T02:06:18.242Z,146477.00
2023-04-19T02:07:20.565Z,146455.28
2023-04-19T02:08:22.758Z,146462.53
2023-04-19T02:09:24.908Z,146454.06
2023-04-19T02:10:27.176Z,146452.84
2023-04-19T02:11:30.543Z,146461.34
2023-04-19T02:12:34.613Z,146462.53
2023-04-19T02:13:38.401Z,146443.22
2023-04-19T02:14:42.373Z,146423.91
2023-04-19T02:15:44.720Z,146416.69
2023-04-19T02:16:46.996Z,146416.69
2023-04-19T02:17:49.522Z,146398.63
2023-04-19T02:18:52.165Z,146387.75
2023-04-19T02:19:54.807Z,146407.06
2023-04-19T02:20:57.049Z,146404.66
2023-04-19T02:21:59.178Z,146392.56
2023-04-19T02:23:01.407Z,146397.41
2023-04-19T02:24:03.753Z,146390.16
2023-04-19T02:25:07.409Z,146385.34
2023-04-19T02:26:09.614Z,146391.34
2023-04-19T02:27:11.891Z,146380.50
2023-04-19T02:28:14.083Z,146369.69
2023-04-19T02:29:17.025Z,146361.19
2023-04-19T02:30:19.283Z,146364.88
2023-04-19T02:31:21.403Z,146372.09
2023-04-19T02:32:23.710Z,146362.44
2023-04-19T02:33:27.301Z,146363.66
2023-04-19T02:34:29.510Z,146344.34
2023-04-19T02:35:31.768Z,146338.31
2023-04-19T02:36:33.944Z,146358.78
2023-04-19T02:37:38.236Z,146355.19
2023-04-19T02:38:40.715Z,146353.97
2023-04-19T02:39:42.933Z,146338.31
2023-04-19T02:40:45.139Z,146332.31
2023-04-19T02:41:47.320Z,146325.03
2023-04-19T02:42:49.457Z,146338.31
2023-04-19T02:43:51.622Z,146337.13
2023-04-19T02:44:53.777Z,146321.44
2023-04-19T02:45:59.799Z,146325.03
2023-04-19T02:47:02.007Z,146331.09
2023-04-19T02:48:04.419Z,146320.22
2023-04-19T02:49:06.583Z,146317.81
2023-04-19T02:50:09.575Z,146313.00
2023-04-19T02:51:18.118Z,146305.78
2023-04-19T02:52:20.556Z,146296.09
2023-04-19T02:53:22.800Z,146291.28
2023-04-19T02:54:25.475Z,146276.84
2023-04-19T02:55:28.134Z,146278.03
2023-04-19T02:56:40.357Z,146255.13
2023-04-19T02:57:42.636Z,146258.75
2023-04-19T02:58:46.302Z,146257.53
2023-04-19T02:59:48.430Z,146249.09
2023-04-19T03:00:50.946Z,146249.09
2023-04-19T03:01:56.099Z,146255.13
2023-04-19T03:03:00.683Z,146255.13
2023-04-19T03:04:04.049Z,146253.94
2023-04-19T03:05:06.893Z,146243.09
2023-04-19T03:06:09.176Z,146227.41
2023-04-19T03:07:11.452Z,146222.59
2023-04-19T03:08:14.670Z,146228.59
2023-04-19T03:09:17.202Z,146209.34
2023-04-19T03:10:19.455Z,146193.66
2023-04-19T03:11:21.993Z,146192.44
2023-04-19T03:12:24.198Z,146184.03
2023-04-19T03:13:26.373Z,146170.78
2023-04-19T03:14:28.528Z,146175.59
2023-04-19T03:15:30.845Z,146178.00
2023-04-19T03:16:33.720Z,146185.22
2023-04-19T03:17:37.495Z,146173.19
2023-04-19T03:18:39.755Z,146175.59
2023-04-19T03:19:42.139Z,146170.78
2023-04-19T03:20:44.513Z,146163.53
2023-04-19T03:21:46.984Z,146153.91
2023-04-19T03:22:49.503Z,146161.13
2023-04-19T03:23:51.657Z,146153.91
2023-04-19T03:24:54.506Z,146144.28
2023-04-19T03:25:58.577Z,146156.31
2023-04-19T03:27:10.465Z,146159.91
2023-04-19T03:28:12.782Z,146180.41
2023-04-19T03:29:33.517Z,146163.53
2023-04-19T03:30:39.338Z,146153.91
2023-04-19T03:31:41.546Z,146145.47
2023-04-19T03:32:47.994Z,146153.91
2023-04-19T03:33:50.907Z,146128.59
2023-04-19T03:34:54.824Z,146120.16
2023-04-19T03:35:57.024Z,146115.34
2023-04-19T03:36:59.527Z,146129.78
2023-04-19T03:38:01.829Z,146103.31
2023-04-19T03:39:04.484Z,146084.03
2023-04-19T03:40:07.291Z,146074.41
2023-04-19T03:41:24.080Z,146116.56
2023-04-19T03:42:44.738Z,146061.13
2023-04-19T03:43:53.099Z,146026.19
2023-04-19T03:44:55.289Z,146032.22
2023-04-19T03:45:58.545Z,146032.22
2023-04-19T03:47:00.854Z,146014.19
2023-04-19T03:48:07.986Z,146014.19
2023-04-19T03:49:10.543Z,146018.97
2023-04-19T03:50:13.010Z,145999.69
2023-04-19T03:51:17.577Z,145972.00
2023-04-19T03:52:20.088Z,145968.38
2023-04-19T03:53:22.240Z,145973.25
2023-04-19T03:54:24.642Z,145957.56
2023-04-19T03:55:26.804Z,145969.59
2023-04-19T03:56:29.017Z,145956.34
2023-04-19T03:57:31.312Z,145961.16
2023-04-19T03:58:35.167Z,145965.97
2023-04-19T03:59:41.721Z,145951.56
2023-04-19T04:00:44.678Z,145939.47
2023-04-19T04:01:47.901Z,145913.03
2023-04-19T04:02:50.309Z,145920.25
2023-04-19T04:03:52.862Z,145922.66
2023-04-19T04:04:55.721Z,145929.84
2023-04-19T04:05:59.155Z,145925.03
2023-04-19T04:07:01.681Z,145923.84
2023-04-19T04:08:03.915Z,145916.63
2023-04-19T04:09:07.574Z,145894.94
2023-04-19T04:10:10.307Z,145902.16
2023-04-19T04:11:17.480Z,145911.81
2023-04-19T04:12:22.674Z,145921.44
2023-04-19T04:13:26.438Z,145920.25
2023-04-19T04:14:40.273Z,145917.84
2023-04-19T04:15:42.797Z,145897.34
2023-04-19T04:16:47.560Z,145881.72
2023-04-19T04:17:51.676Z,145886.53
2023-04-19T04:18:55.544Z,145905.78
2023-04-19T04:20:01.301Z,145898.56
2023-04-19T04:21:06.285Z,145884.13
2023-04-19T04:22:10.885Z,145867.25
2023-04-19T04:23:16.698Z,145855.22
2023-04-19T04:24:23.999Z,145866.03
2023-04-19T04:26:01.133Z,145902.16
2023-04-19T04:27:14.319Z,145861.25
2023-04-19T04:28:17.557Z,145852.81
2023-04-19T04:29:20.297Z,145840.75
2023-04-19T04:30:26.565Z,145854.03
2023-04-19T04:31:36.223Z,145856.44
2023-04-19T04:32:41.005Z,145850.41
2023-04-19T04:33:45.829Z,145862.44
2023-04-19T04:34:49.327Z,145852.81
2023-04-19T04:36:01.747Z,145850.41
2023-04-19T04:37:08.840Z,145862.44
2023-04-19T04:38:23.444Z,145860.03
2023-04-19T04:39:26.767Z,145886.53
2023-04-19T04:40:29.275Z,145885.31
2023-04-19T04:41:31.525Z,145870.84
2023-04-19T04:42:33.922Z,145898.56
2023-04-19T04:43:36.253Z,145919.03
2023-04-19T04:44:39.097Z,145913.03
2023-04-19T04:45:44.611Z,145910.63
2023-04-19T04:46:47.645Z,145920.25
2023-04-19T04:47:54.922Z,145929.84
2023-04-19T04:48:57.281Z,145920.25
2023-04-19T04:50:02.305Z,145922.66
2023-04-19T04:51:05.263Z,145922.66
2023-04-19T04:52:09.018Z,145913.03
2023-04-19T04:53:18.903Z,145940.72
2023-04-19T04:54:21.923Z,145941.94
2023-04-19T04:55:24.216Z,145939.47
2023-04-19T04:56:27.027Z,145940.72
2023-04-19T04:57:29.413Z,145941.94
2023-04-19T04:58:31.938Z,145925.03
2023-04-19T04:59:38.191Z,145941.94
2023-04-19T05:00:40.480Z,145938.28
2023-04-19T05:01:44.608Z,145932.25
2023-04-19T05:02:47.523Z,145929.84
2023-04-19T05:03:50.919Z,145947.94
2023-04-19T05:04:54.886Z,145944.34
2023-04-19T05:05:57.119Z,145957.56
2023-04-19T05:07:00.058Z,145963.56
2023-04-19T05:08:03.960Z,145969.59
2023-04-19T05:09:06.828Z,145956.34
2023-04-19T05:10:10.574Z,145946.75
2023-04-19T05:11:20.710Z,145956.34
2023-04-19T05:12:23.057Z,145951.56
2023-04-19T05:13:25.852Z,145957.56
2023-04-19T05:14:28.018Z,145970.78
2023-04-19T05:15:30.804Z,145982.84
2023-04-19T05:16:34.203Z,145990.06
2023-04-19T05:17:36.546Z,145987.66
2023-04-19T05:18:38.873Z,146005.75
2023-04-19T05:19:41.395Z,146014.19
2023-04-19T05:20:46.777Z,146014.19
2023-04-19T05:21:56.278Z,146021.38
2023-04-19T05:23:00.346Z,146041.88
2023-04-19T05:24:03.013Z,146043.09
2023-04-19T05:25:06.834Z,146055.13
2023-04-19T05:26:12.636Z,146067.13
2023-04-19T05:27:15.913Z,146068.34
2023-04-19T05:28:18.217Z,146088.84
2023-04-19T05:29:37.323Z,146109.34
2023-04-19T05:30:40.332Z,146108.13
2023-04-19T05:31:42.659Z,146122.56
2023-04-19T05:32:52.706Z,146138.25
2023-04-19T05:33:54.970Z,146149.09
2023-04-19T05:34:57.133Z,146161.13
2023-04-19T05:35:59.339Z,146187.63
2023-04-19T05:37:02.798Z,146209.34
2023-04-19T05:38:05.015Z,146194.84
2023-04-19T05:39:07.277Z,146216.56
2023-04-19T05:40:10.250Z,146232.22
2023-04-19T05:41:12.486Z,146243.09
2023-04-19T05:42:14.629Z,146261.16
2023-04-19T05:43:16.822Z,146285.25
2023-04-19T05:44:19.165Z,146293.69
2023-04-19T05:45:21.996Z,146337.13
2023-04-19T05:46:24.230Z,146346.75
2023-04-19T05:47:26.567Z,146351.56
2023-04-19T05:48:57.885Z,146395.00
2023-04-19T05:50:03.935Z,146433.59
2023-04-19T05:51:10.106Z,146433.59
2023-04-19T05:52:30.325Z,146460.13
2023-04-19T05:53:34.128Z,146481.81
2023-04-19T05:54:36.356Z,146510.75
2023-04-19T05:55:39.819Z,146530.13
2023-04-19T05:56:42.056Z,146549.41
2023-04-19T05:57:44.256Z,146563.91
2023-04-19T05:58:46.901Z,146567.53
2023-04-19T05:59:49.081Z,146595.28
2023-04-19T06:00:54.839Z,146610.94
2023-04-19T06:01:58.786Z,146627.88
2023-04-19T06:03:01.341Z,146648.34
2023-04-19T06:04:04.219Z,146671.28
2023-04-19T06:05:10.274Z,146677.31
2023-04-19T06:06:13.776Z,146688.22
2023-04-19T06:07:30.179Z,146665.25
2023-04-19T06:08:35.555Z,146677.31
2023-04-19T06:09:37.780Z,146703.88
2023-04-19T06:11:51.835Z,146757.00
2023-04-19T06:12:54.226Z,146776.28
2023-04-19T06:13:56.474Z,146793.22
2023-04-19T06:15:00.067Z,146843.91
2023-04-19T06:16:03.705Z,146851.19
2023-04-19T06:17:06.099Z,146839.09
2023-04-19T06:18:11.008Z,146865.66
2023-04-19T06:19:22.080Z,146881.34
2023-04-19T06:20:24.232Z,146886.19
2023-04-19T06:21:26.990Z,146897.06
2023-04-19T06:22:29.133Z,146935.69
2023-04-19T06:23:31.258Z,146945.34
2023-04-19T06:24:34.925Z,146875.31
2023-04-19T06:25:37.557Z,146906.72
2023-04-19T06:26:39.704Z,146923.63
2023-04-19T06:27:41.896Z,146974.34
2023-04-19T06:28:44.078Z,147005.75
2023-04-19T06:29:46.288Z,147118.19
2023-04-19T06:30:48.455Z,147269.25
2023-04-19T06:31:50.654Z,147493.03
2023-04-19T06:32:53.029Z,147605.63
2023-04-19T06:33:55.416Z,147785.97
2023-04-19T06:34:57.587Z,147922.81
2023-04-19T06:35:59.731Z,148067.06
2023-04-19T06:37:01.869Z,148165.22
2023-04-19T06:38:04.044Z,148322.91
2023-04-19T06:39:06.222Z,148347.13
2023-04-19T06:40:09.393Z,148398.09
2023-04-19T06:41:11.555Z,148485.44
2023-04-19T06:42:13.799Z,148565.53
2023-04-19T06:43:16.007Z,148569.19
2023-04-19T06:44:18.430Z,148432.03
2023-04-19T06:45:20.750Z,148570.41
2023-04-19T06:46:23.001Z,148614.13
2023-04-19T06:47:25.327Z,148730.63
2023-04-19T06:48:27.873Z,148876.41
2023-04-19T06:49:30.044Z,148893.38
2023-04-19T06:50:32.278Z,149012.44
2023-04-19T06:51:34.564Z,148934.66
2023-04-19T06:52:36.799Z,148934.66
2023-04-19T06:53:39.102Z,149036.69
2023-04-19T06:54:41.205Z,148951.69
2023-04-19T06:55:43.393Z,148995.41
2023-04-19T06:56:49.934Z,149099.94
2023-04-19T06:57:52.127Z,148912.84
2023-04-19T06:58:54.276Z,149014.88
2023-04-19T06:59:56.493Z,149164.34
2023-04-19T07:00:59.545Z,149124.25
2023-04-19T07:02:01.740Z,149051.31
2023-04-19T07:03:04.418Z,148988.13
2023-04-19T07:04:08.670Z,148781.63
2023-04-19T07:05:12.884Z,149143.72
2023-04-19T07:06:15.014Z,149221.50
2023-04-19T07:07:17.702Z,149288.34
2023-04-19T07:08:19.890Z,149368.69
2023-04-19T07:09:22.121Z,149355.28
2023-04-19T07:10:24.530Z,149501.25
2023-04-19T07:11:26.849Z,149593.72
2023-04-19T07:12:29.032Z,149675.25
2023-04-19T07:13:31.226Z,149820.13
2023-04-19T07:14:33.765Z,149923.66
2023-04-19T07:15:36.104Z,150022.38
2023-04-19T07:16:38.833Z,150044.25
2023-04-19T07:17:41.082Z,150167.31
2023-04-19T07:18:43.998Z,150339.19
2023-04-19T07:19:48.866Z,150548.97
2023-04-19T07:20:51.176Z,150283.09
2023-04-19T07:21:53.440Z,150268.50
2023-04-19T07:22:55.646Z,149800.69
2023-04-19T07:23:57.811Z,149873.72
2023-04-19T07:25:00.145Z,150151.44
2023-04-19T07:26:02.335Z,150024.78
2023-04-19T07:27:04.681Z,150036.97
2023-04-19T07:28:06.925Z,150222.22
2023-04-19T07:29:09.544Z,150452.63
2023-04-19T07:30:11.999Z,150485.56
2023-04-19T07:31:18.617Z,150476.97
2023-04-19T07:32:21.060Z,150503.81
2023-04-19T07:33:27.448Z,150524.56
2023-04-19T07:34:30.414Z,150384.34
2023-04-19T07:35:32.691Z,150210.00
2023-04-19T07:36:35.663Z,150334.31
2023-04-19T07:37:37.867Z,150335.53
2023-04-19T07:38:40.128Z,150385.56
2023-04-19T07:39:42.283Z,150414.78
2023-04-19T07:40:44.516Z,150318.50
2023-04-19T07:41:46.732Z,150208.78
2023-04-19T07:42:49.187Z,149838.41
2023-04-19T07:43:51.361Z,149635.13
2023-04-19T07:44:53.570Z,149742.19
2023-04-19T07:45:56.140Z,149850.56
2023-04-19T07:46:58.444Z,149987.00
2023-04-19T07:48:00.687Z,150027.22
2023-04-19T07:49:03.014Z,150112.47
2023-04-19T07:50:07.625Z,150056.47
2023-04-19T07:51:14.737Z,150117.34
2023-04-19T07:52:18.408Z,150095.44
2023-04-19T07:53:20.609Z,150069.84
2023-04-19T07:54:22.747Z,149958.97
2023-04-19T07:55:24.932Z,149898.09
2023-04-19T07:56:27.218Z,149850.56
2023-04-19T07:57:29.389Z,149793.38
2023-04-19T07:58:31.716Z,149982.09
2023-04-19T07:59:33.901Z,149815.28
2023-04-19T08:00:37.889Z,150026.00
2023-04-19T08:01:40.344Z,150044.25
2023-04-19T08:02:46.764Z,149987.00
2023-04-19T08:03:49.559Z,150210.00
2023-04-19T08:04:52.251Z,150246.53
2023-04-19T08:05:54.714Z,150352.63
2023-04-19T08:06:56.933Z,150302.63
2023-04-19T08:07:59.103Z,150253.91
2023-04-19T08:09:01.258Z,150305.06
2023-04-19T08:10:03.727Z,150225.84
2023-04-19T08:11:06.981Z,150212.44
2023-04-19T08:12:10.064Z,150381.88
2023-04-19T08:13:15.002Z,150303.84
2023-04-19T08:14:30.934Z,150277.03
2023-04-19T08:16:18.267Z,150447.72
2023-04-19T08:18:05.504Z,150345.28
2023-04-19T08:19:07.711Z,150530.66
2023-04-19T08:20:11.491Z,150400.19
2023-04-19T08:21:13.689Z,150517.25
2023-04-19T08:22:19.328Z,150380.66
2023-04-19T08:23:27.482Z,150285.59
2023-04-19T08:24:34.143Z,149929.75
2023-04-19T08:25:37.076Z,149820.13
2023-04-19T08:26:39.317Z,149934.63
2023-04-19T08:27:41.438Z,150082.00
2023-04-19T08:28:43.708Z,150170.97
2023-04-19T08:29:46.137Z,150227.06
2023-04-19T08:30:48.956Z,150407.50
2023-04-19T08:31:51.438Z,150364.78
2023-04-19T08:32:55.595Z,150417.28
2023-04-19T08:34:00.478Z,150548.97
2023-04-19T08:35:03.674Z,150470.88
2023-04-19T08:36:06.258Z,150475.75
2023-04-19T08:37:08.447Z,150450.19
2023-04-19T08:38:10.714Z,150489.19
2023-04-19T08:39:24.635Z,150647.81
2023-04-19T08:40:31.905Z,150541.63
2023-04-19T08:41:34.918Z,150390.44
2023-04-19T08:42:37.429Z,150529.44
2023-04-19T08:43:43.799Z,150631.94
2023-04-19T08:45:54.144Z,150553.84
2023-04-19T08:46:58.798Z,150513.56
2023-04-19T08:48:02.621Z,150778.41
2023-04-19T08:49:06.056Z,150783.25
2023-04-19T08:50:20.605Z,150863.78
2023-04-19T08:51:32.119Z,150764.94
2023-04-19T08:52:48.008Z,150784.47
2023-04-19T08:53:58.041Z,150739.25
2023-04-19T08:55:15.511Z,150723.44
2023-04-19T08:56:28.080Z,150829.63
2023-04-19T08:57:36.347Z,150934.63
2023-04-19T08:58:56.922Z,150600.22
2023-04-19T09:00:01.088Z,150707.53
2023-04-19T09:01:12.922Z,150945.63
2023-04-19T09:02:19.879Z,151022.53
2023-04-19T09:03:22.446Z,150992.00
2023-04-19T09:04:36.281Z,151139.81
2023-04-19T09:05:39.008Z,151219.16
2023-04-19T09:06:41.929Z,151222.81
2023-04-19T09:07:46.534Z,151150.78
2023-04-19T09:08:48.676Z,151005.41
2023-04-19T09:10:10.618Z,151153.22
2023-04-19T09:11:12.908Z,151046.94
2023-04-19T09:12:18.567Z,150904.06
2023-04-19T09:13:21.254Z,150794.22
2023-04-19T09:14:23.755Z,150822.31
2023-04-19T09:15:40.914Z,150815.00
2023-04-19T09:16:44.361Z,150808.84
2023-04-19T09:18:04.292Z,150834.50
2023-04-19T09:19:19.566Z,150712.47
2023-04-19T09:20:45.519Z,150362.34
2023-04-19T09:21:51.689Z,150392.88
2023-04-19T09:23:06.041Z,150422.16
2023-04-19T09:24:08.824Z,150670.94
2023-04-19T09:25:41.933Z,150680.75
2023-04-19T09:26:55.046Z,150894.31
2023-04-19T09:28:09.939Z,150801.53
2023-04-19T09:29:17.464Z,150778.41
2023-04-19T09:31:47.280Z,151108.06
2023-04-19T09:32:50.968Z,151123.91
2023-04-19T09:33:54.447Z,151007.91
2023-04-19T09:34:59.879Z,151193.50
2023-04-19T09:36:02.923Z,151177.66
2023-04-19T09:37:25.042Z,151303.47
2023-04-19T09:38:50.349Z,151227.72
2023-04-19T09:39:53.249Z,151294.94
2023-04-19T09:41:08.930Z,151341.38
2023-04-19T09:42:11.379Z,151145.91
2023-04-19T09:43:40.505Z,151121.47
2023-04-19T09:45:43.964Z,151061.59
2023-04-19T09:46:50.386Z,150899.19
2023-04-19T09:48:03.451Z,150998.09
2023-04-19T09:49:25.176Z,151174.00
2023-04-19T09:51:04.452Z,151227.72
2023-04-19T09:52:13.575Z,151335.22
2023-04-19T09:53:17.016Z,151426.94
2023-04-19T09:54:21.333Z,151367.00
2023-04-19T09:55:27.576Z,151291.28
2023-04-19T09:56:30.865Z,151159.31
2023-04-19T09:57:34.411Z,151068.91
2023-04-19T09:59:41.700Z,151291.28
2023-04-19T10:00:51.332Z,151359.69
2023-04-19T10:01:58.868Z,151292.50
2023-04-19T10:03:01.433Z,151227.72
2023-04-19T10:04:20.586Z,151171.50
2023-04-19T10:05:28.548Z,151285.16
2023-04-19T10:06:45.971Z,151145.91
2023-04-19T10:07:59.691Z,151066.47
2023-04-19T10:09:04.272Z,151213.06
2023-04-19T10:10:18.636Z,151437.97
2023-04-19T10:11:23.513Z,151297.38
2023-04-19T10:13:32.290Z,151286.41
2023-04-19T10:14:36.253Z,151247.28
2023-04-19T10:15:50.172Z,151110.50
2023-04-19T10:16:56.635Z,151105.56
2023-04-19T10:17:59.474Z,151028.63
2023-04-19T10:19:04.584Z,150908.97
2023-04-19T10:20:10.919Z,150961.47
2023-04-19T10:21:13.967Z,150805.19
2023-04-19T10:22:16.304Z,150888.22
2023-04-19T10:23:19.321Z,150905.28
2023-04-19T10:24:23.242Z,150890.66
2023-04-19T10:25:29.917Z,150907.72
2023-04-19T10:27:12.025Z,150763.72
2023-04-19T10:28:17.515Z,150800.31
2023-04-19T10:30:01.341Z,150849.16
2023-04-19T10:31:05.003Z,150891.88
2023-04-19T10:32:07.417Z,150949.28
2023-04-19T10:33:09.711Z,150680.75
2023-04-19T10:34:12.829Z,150670.94
2023-04-19T10:35:22.183Z,150746.66
2023-04-19T10:36:27.417Z,150750.31
2023-04-19T10:37:31.769Z,150782.06
2023-04-19T10:38:47.147Z,150527.00
2023-04-19T10:39:49.554Z,150719.78
2023-04-19T10:40:57.718Z,150985.91
2023-04-19T10:41:59.980Z,151149.56
2023-04-19T10:43:11.491Z,151371.94
2023-04-19T10:44:13.656Z,151445.28
2023-04-19T10:45:35.305Z,151913.66
2023-04-19T10:46:40.641Z,151990.69
2023-04-19T10:47:44.872Z,151933.25
2023-04-19T10:49:01.316Z,151748.50
2023-04-19T10:50:06.595Z,151550.38
2023-04-19T10:51:16.680Z,151446.50
2023-04-19T10:52:31.262Z,151481.94
2023-04-19T10:53:57.664Z,151525.91
2023-04-19T10:55:04.318Z,151525.91
2023-04-19T10:56:06.633Z,151513.72
2023-04-19T10:57:11.155Z,151601.78
2023-04-19T10:58:13.395Z,151809.66
2023-04-19T10:59:22.114Z,151897.78
2023-04-19T11:00:26.817Z,151708.13
2023-04-19T11:01:37.465Z,151353.59
2023-04-19T11:02:39.714Z,151481.94
2023-04-19T11:03:51.894Z,151525.91
2023-04-19T11:04:54.265Z,151363.34
2023-04-19T11:06:16.555Z,151340.16
2023-04-19T11:07:20.765Z,151254.63
2023-04-19T11:08:23.437Z,151330.34
2023-04-19T11:09:26.303Z,151489.25
2023-04-19T11:10:33.532Z,151342.59
2023-04-19T11:11:36.435Z,151384.13
2023-04-19T11:12:42.933Z,151374.38
2023-04-19T11:13:47.555Z,151462.34
2023-04-19T11:14:57.374Z,151287.63
2023-04-19T11:15:59.734Z,151428.16
2023-04-19T11:17:05.008Z,151675.09
2023-04-19T11:18:12.885Z,151787.63
2023-04-19T11:19:19.458Z,151724.03
2023-04-19T11:20:24.133Z,151677.56
2023-04-19T11:21:30.308Z,151439.19
2023-04-19T11:22:35.214Z,151461.13
2023-04-19T11:23:37.311Z,151494.13
2023-04-19T11:24:46.194Z,151252.19
2023-04-19T11:25:51.733Z,151195.94
2023-04-19T11:26:56.185Z,151181.31
2023-04-19T11:28:00.428Z,151275.41
2023-04-19T11:29:02.974Z,151335.22
2023-04-19T11:30:11.471Z,151348.69
2023-04-19T11:31:13.795Z,151374.38
2023-04-19T11:32:16.344Z,151320.59
2023-04-19T11:33:24.682Z,151445.28
2023-04-19T11:34:26.842Z,151535.72
2023-04-19T11:35:30.551Z,151593.19
2023-04-19T11:36:33.866Z,151497.78
2023-04-19T11:37:37.312Z,151345.03
2023-04-19T11:38:39.579Z,151484.38
2023-04-19T11:39:46.979Z,151479.50
2023-04-19T11:40:58.999Z,151379.25
2023-04-19T11:42:02.176Z,151357.25
2023-04-19T11:43:05.449Z,151562.56
2023-04-19T11:44:20.570Z,151390.22
2023-04-19T11:45:32.571Z,151288.84
2023-04-19T11:46:37.997Z,151250.97
2023-04-19T11:47:50.211Z,151396.31
2023-04-19T11:48:53.463Z,151363.34
2023-04-19T11:49:58.534Z,151139.81
2023-04-19T11:51:01.339Z,151161.75
2023-04-19T11:52:06.617Z,151166.63
2023-04-19T11:53:23.644Z,151220.38
2023-04-19T11:54:26.942Z,151232.59
2023-04-19T11:55:33.304Z,151128.78
2023-04-19T11:56:36.041Z,151044.50
2023-04-19T11:57:41.748Z,151192.28
2023-04-19T11:58:48.369Z,151097.03
2023-04-19T12:00:12.169Z,151296.16
2023-04-19T12:01:22.003Z,151270.50
2023-04-19T12:02:24.419Z,151357.25
2023-04-19T12:03:27.267Z,151485.59
2023-04-19T12:04:29.840Z,151305.97
2023-04-19T12:05:32.395Z,151286.41
2023-04-19T12:06:34.753Z,151277.84
2023-04-19T12:07:37.064Z,151144.69
2023-04-19T12:08:43.710Z,151283.94
2023-04-19T12:09:49.077Z,151228.94
2023-04-19T12:11:00.337Z,151178.88
2023-04-19T12:12:03.321Z,151108.06
2023-04-19T12:13:18.610Z,151193.50
2023-04-19T12:14:23.173Z,151244.81
2023-04-19T12:15:44.770Z,151307.19
2023-04-19T12:17:02.975Z,151144.69
2023-04-19T12:18:05.363Z,150983.47
2023-04-19T12:19:20.235Z,151092.16
2023-04-19T12:20:36.850Z,151200.81
2023-04-19T12:21:39.070Z,151147.13
2023-04-19T12:22:43.731Z,150951.72
2023-04-19T12:23:45.940Z,150907.72
2023-04-19T12:24:51.737Z,150867.44
2023-04-19T12:25:53.923Z,150828.41
2023-04-19T12:26:57.288Z,150800.31
2023-04-19T12:28:02.112Z,150866.22
2023-04-19T12:29:04.433Z,150847.94